Yiwu, China
Current Conditions -  °F | °C
As of 10:00 AM on Tuesday 21 Oct 2014 (Local Time) from ZWWW Reporting Station
Clear Clear  
Wind Chill: 61°   Ceiling: Unl
Heat Index: 61°   Visibility: 6mi
Dew Point: 23°   Wind: 16mph
Humidity: 23%   Direction: 180°S
Pressure: 30.03"   Gusts: NA
Location:  43.27°N, 94.7°E
Report Text: ZWWW 210200Z 18007MPS CAVOK 16/M05 Q1017 BECMG TL035002004MPS
Loading
Personal Weather Stations






























Interactive Weather Map
Tropical Storm Tracking
New forecast layout! Learn more

10-Day Weather Forecast

Advertisements
Track Severe Weather on mobile